createdAt,value
2022-10-19T00:00:42.992Z,82.54
2022-10-19T00:05:52.425Z,82.47
2022-10-19T00:10:56.412Z,82.69
2022-10-19T00:16:00.037Z,82.67
2022-10-19T00:21:08.657Z,82.84
2022-10-19T00:26:20.531Z,82.72
2022-10-19T00:31:24.135Z,82.37
2022-10-19T00:36:37.189Z,82.38
2022-10-19T00:41:47.144Z,81.88
2022-10-19T00:47:01.631Z,81.79
2022-10-19T00:52:17.434Z,81.87
2022-10-19T00:57:23.312Z,81.97
2022-10-19T01:05:26.525Z,81.98
2022-10-19T01:10:58.054Z,82.01
2022-10-19T01:16:29.139Z,81.91
2022-10-19T01:21:48.386Z,82.05
2022-10-19T01:27:22.541Z,82.26
2022-10-19T01:33:05.297Z,82.36
2022-10-19T01:38:34.938Z,82.05
2022-10-19T01:44:12.630Z,81.94
2022-10-19T01:49:54.582Z,82.25
2022-10-19T01:55:05.952Z,82.21
2022-10-19T02:00:26.524Z,82.46
2022-10-19T02:05:48.168Z,82.29
2022-10-19T02:10:52.362Z,82.31
2022-10-19T02:16:06.657Z,81.98
2022-10-19T02:21:15.894Z,82.27
2022-10-19T02:26:21.999Z,82.20
2022-10-19T02:31:30.325Z,82.41
2022-10-19T02:36:34.179Z,82.43
2022-10-19T02:42:08.814Z,83.30
2022-10-19T02:47:40.480Z,83.25
2022-10-19T02:52:48.217Z,84.36
2022-10-19T02:57:57.539Z,83.34
2022-10-19T03:03:11.240Z,83.57
2022-10-19T03:08:14.700Z,83.46
2022-10-19T03:13:22.197Z,83.97
2022-10-19T03:18:26.115Z,83.97
2022-10-19T03:23:32.317Z,84.20
2022-10-19T03:34:07.097Z,83.81
2022-10-19T03:39:23.325Z,84.00
2022-10-19T03:44:35.230Z,84.08
2022-10-19T03:49:45.923Z,83.69
2022-10-19T03:54:54.701Z,83.77
2022-10-19T03:59:57.929Z,83.76
2022-10-19T04:05:05.843Z,83.77
2022-10-19T04:10:19.678Z,83.80
2022-10-19T04:15:22.953Z,83.80
2022-10-19T04:20:27.131Z,83.69
2022-10-19T04:25:31.663Z,83.63
2022-10-19T04:30:37.700Z,83.69
2022-10-19T04:35:46.370Z,83.55
2022-10-19T04:41:02.214Z,83.57
2022-10-19T04:46:23.711Z,83.67
2022-10-19T04:51:31.890Z,83.75
2022-10-19T05:02:01.078Z,83.84
2022-10-19T05:07:06.784Z,83.90
2022-10-19T05:12:14.288Z,83.68
2022-10-19T05:17:20.960Z,83.63
2022-10-19T05:22:26.884Z,83.81
2022-10-19T05:27:32.360Z,83.69
2022-10-19T05:32:42.742Z,83.71
2022-10-19T05:37:49.383Z,83.42
2022-10-19T05:42:55.018Z,83.72
2022-10-19T05:47:59.104Z,83.53
2022-10-19T05:53:05.489Z,83.69
2022-10-19T05:58:12.236Z,83.33
2022-10-19T06:03:17.980Z,83.06
2022-10-19T06:08:26.143Z,83.07
2022-10-19T06:13:32.616Z,83.03
2022-10-19T06:18:43.105Z,83.21
2022-10-19T06:23:56.990Z,83.18
2022-10-19T06:29:07.639Z,83.10
2022-10-19T06:34:22.519Z,82.91
2022-10-19T06:39:41.001Z,82.98
2022-10-19T06:44:50.378Z,82.71
2022-10-19T06:50:02.822Z,82.50
2022-10-19T06:55:08.280Z,82.10
2022-10-19T07:00:12.760Z,82.12
2022-10-19T07:05:18.418Z,81.78
2022-10-19T07:10:27.670Z,81.98
2022-10-19T07:15:33.192Z,82.05
2022-10-19T07:20:49.040Z,81.91
2022-10-19T07:26:12.589Z,81.75
2022-10-19T07:31:30.023Z,81.67
2022-10-19T07:36:42.387Z,81.39
2022-10-19T07:42:04.674Z,81.40
2022-10-19T07:47:14.784Z,81.25
2022-10-19T07:52:20.606Z,81.08
2022-10-19T07:57:35.483Z,81.37
2022-10-19T08:02:54.711Z,81.42
2022-10-19T08:08:05.042Z,81.16
2022-10-19T08:13:17.318Z,81.12
2022-10-19T08:18:26.394Z,81.27
2022-10-19T08:23:30.525Z,81.17
2022-10-19T08:28:45.985Z,81.01
2022-10-19T08:34:32.818Z,80.97
2022-10-19T08:39:46.238Z,80.74
2022-10-19T08:45:28.055Z,80.95
2022-10-19T08:50:48.014Z,80.21
2022-10-19T08:56:51.128Z,80.03
2022-10-19T09:02:34.981Z,79.40
2022-10-19T09:07:48.369Z,78.87
2022-10-19T09:13:08.011Z,77.65
2022-10-19T09:18:25.863Z,74.86
2022-10-19T09:24:11.141Z,73.00
2022-10-19T09:29:32.236Z,72.24
2022-10-19T09:46:09.517Z,72.64
2022-10-19T09:51:42.718Z,72.89
2022-10-19T10:02:35.708Z,74.58
2022-10-19T10:08:00.151Z,75.39
2022-10-19T10:13:22.878Z,75.18
2022-10-19T10:18:38.456Z,75.30
2022-10-19T10:24:22.030Z,73.48
2022-10-19T10:29:37.712Z,71.07
2022-10-19T10:34:56.895Z,70.44
2022-10-19T10:40:10.158Z,70.20
2022-10-19T10:50:54.526Z,69.00
2022-10-19T10:56:04.369Z,69.26
2022-10-19T11:01:27.784Z,68.66
2022-10-19T11:06:54.571Z,69.05
2022-10-19T11:12:10.628Z,69.41
2022-10-19T11:17:41.436Z,66.87
2022-10-19T11:23:54.064Z,67.59
2022-10-19T11:29:38.665Z,67.92
2022-10-19T11:35:27.110Z,68.90
2022-10-19T11:41:13.098Z,68.86
2022-10-19T11:46:58.439Z,68.88
2022-10-19T11:52:40.118Z,70.53
2022-10-19T11:58:25.454Z,71.17
2022-10-19T12:04:05.302Z,70.67
2022-10-19T12:10:07.918Z,69.31
2022-10-19T12:15:41.820Z,69.66
2022-10-19T12:20:55.533Z,70.07
2022-10-19T12:26:11.757Z,70.09
2022-10-19T12:31:22.542Z,70.63
2022-10-19T12:36:52.588Z,70.26
2022-10-19T12:42:48.919Z,69.51
2022-10-19T12:48:20.769Z,69.68
2022-10-19T12:53:49.405Z,70.71
2022-10-19T12:59:02.895Z,70.95
2022-10-19T13:04:25.382Z,71.65
2022-10-19T13:09:45.973Z,70.99
2022-10-19T13:14:56.168Z,70.75
2022-10-19T13:20:34.218Z,69.82
2022-10-19T13:25:42.577Z,70.87
2022-10-19T13:31:04.967Z,71.54
2022-10-19T13:36:19.254Z,71.17
2022-10-19T13:41:33.357Z,72.00
2022-10-19T13:47:20.034Z,71.75
2022-10-19T13:59:20.354Z,70.04
2022-10-19T14:05:30.895Z,69.65
2022-10-19T14:11:00.225Z,69.54
2022-10-19T14:16:35.795Z,69.16
2022-10-19T14:21:49.786Z,69.06
2022-10-19T14:26:56.812Z,68.84
2022-10-19T14:32:02.811Z,68.72
2022-10-19T14:37:47.638Z,67.88
2022-10-19T14:42:51.152Z,68.41
2022-10-19T14:48:12.005Z,68.67
2022-10-19T14:54:17.004Z,68.47
2022-10-19T14:59:55.451Z,69.24
2022-10-19T15:05:12.247Z,69.69
2022-10-19T15:10:53.398Z,70.12
2022-10-19T15:16:11.044Z,71.45
2022-10-19T15:21:38.376Z,71.71
2022-10-19T15:26:47.817Z,72.36
2022-10-19T15:32:00.041Z,72.83
2022-10-19T15:42:37.842Z,73.17
2022-10-19T15:48:12.672Z,73.23
2022-10-19T15:53:25.228Z,73.72
2022-10-19T15:58:37.006Z,73.50
2022-10-19T16:03:44.346Z,73.33
2022-10-19T16:08:57.407Z,73.22
2022-10-19T16:14:05.334Z,74.02
2022-10-19T16:19:16.774Z,74.65
2022-10-19T16:24:26.647Z,75.12
2022-10-19T16:29:33.163Z,75.44
2022-10-19T16:40:11.163Z,76.67
2022-10-19T16:45:31.358Z,77.62
2022-10-19T16:50:47.959Z,77.46
2022-10-19T16:55:55.568Z,76.72
2022-10-19T17:01:01.755Z,77.13
2022-10-19T17:06:14.630Z,77.31
2022-10-19T17:11:27.748Z,77.64
2022-10-19T17:17:12.402Z,77.56
2022-10-19T17:22:20.979Z,77.93
2022-10-19T17:27:30.317Z,77.93
2022-10-19T17:32:46.459Z,77.74
2022-10-19T17:37:57.386Z,77.81
2022-10-19T17:43:20.166Z,78.02
2022-10-19T17:48:29.457Z,77.80
2022-10-19T17:53:38.322Z,78.04
2022-10-19T17:58:47.585Z,77.84
2022-10-19T18:03:58.034Z,77.91
2022-10-19T18:09:07.180Z,77.72
2022-10-19T18:14:18.785Z,78.16
2022-10-19T18:19:25.721Z,77.75
2022-10-19T18:24:31.900Z,77.80
2022-10-19T18:29:40.463Z,77.75
2022-10-19T18:34:47.451Z,77.87
2022-10-19T18:39:52.690Z,77.57
2022-10-19T18:45:00.667Z,77.83
2022-10-19T18:55:29.951Z,78.11
2022-10-19T19:00:46.063Z,78.70
2022-10-19T19:05:52.155Z,78.70
2022-10-19T19:10:58.613Z,78.96
2022-10-19T19:16:04.603Z,79.10
2022-10-19T19:21:20.096Z,79.61
2022-10-19T19:26:27.925Z,80.01
2022-10-19T19:31:42.268Z,80.57
2022-10-19T19:36:49.266Z,80.58
2022-10-19T19:42:02.164Z,81.19
2022-10-19T19:47:17.346Z,81.00
2022-10-19T19:52:39.418Z,81.35
2022-10-19T19:57:54.538Z,81.86
2022-10-19T20:08:21.190Z,81.98
2022-10-19T20:13:26.027Z,82.09
2022-10-19T20:18:35.993Z,81.82
2022-10-19T20:23:39.900Z,81.21
2022-10-19T20:28:49.432Z,80.92
2022-10-19T20:33:55.368Z,80.56
2022-10-19T20:39:02.995Z,80.40
2022-10-19T20:44:10.310Z,81.27
2022-10-19T20:49:20.564Z,80.91
2022-10-19T20:54:34.466Z,81.42
2022-10-19T20:59:42.462Z,81.46
2022-10-19T21:04:45.964Z,81.61
2022-10-19T21:09:50.360Z,81.67
2022-10-19T21:15:01.213Z,81.81
2022-10-19T21:20:13.310Z,82.05
2022-10-19T21:25:17.730Z,82.19
2022-10-19T21:30:23.247Z,82.41
2022-10-19T21:35:29.895Z,82.28
2022-10-19T21:40:37.626Z,82.46
2022-10-19T21:45:56.914Z,82.33
2022-10-19T21:51:30.620Z,82.29
2022-10-19T21:56:36.787Z,82.32
2022-10-19T22:01:51.388Z,81.98
2022-10-19T22:07:00.858Z,82.27
2022-10-19T22:12:10.125Z,82.11
2022-10-19T22:17:20.648Z,82.11
2022-10-19T22:22:30.492Z,82.29
2022-10-19T22:27:37.386Z,82.49
2022-10-19T22:32:40.293Z,82.42
2022-10-19T22:37:49.156Z,82.37
2022-10-19T22:42:57.841Z,82.48
2022-10-19T22:48:05.806Z,82.18
2022-10-19T22:53:08.690Z,82.29
2022-10-19T22:58:19.345Z,82.30
2022-10-19T23:03:22.467Z,82.43
2022-10-19T23:08:30.024Z,82.54
2022-10-19T23:13:39.094Z,82.52
2022-10-19T23:18:47.588Z,82.30
2022-10-19T23:23:58.498Z,82.16
2022-10-19T23:29:09.555Z,82.21
2022-10-19T23:39:35.110Z,82.74
2022-10-19T23:44:40.189Z,82.59
2022-10-19T23:49:49.445Z,82.82
2022-10-19T23:55:09.781Z,82.95
